Juan de Fuca Strait - east entrance: Past 24 Hour Conditions

 

Victoria Int'l Airport

05:00 PM PST 23 November 2014
This table is a summary of hourly weather conditions for the past 24 hours.
Date / Time
(PST)
Wind(knots) Conditions Visibility(km) Pressure(kPa) Air tempC) Relative humidity(%) Dew pointC)
23 November 2014
17:00 N 1 Mainly Clear 48 102.2 10 63 3
16:00 WSW 8 Partly Cloudy 48 102.1 10 66 4
15:00 W 12 gust 19 Partly Cloudy 48 102.0 11 54 3
14:00 W 11 gust 20 Partly Cloudy 48 102.0 12 54 3
13:00 WSW 12 Partly Cloudy 48 101.9 11 59 3
12:00 WSW 14 gust 19 Partly Cloudy 48 101.8 12 60 4
11:00 WSW 14 gust 19 Partly Cloudy 48 101.8 11 63 4
10:00 WSW 12 gust 18 Partly Cloudy 48 101.7 11 65 4
9:00 WSW 6 Partly Cloudy 48 101.6 9 75 5
8:00 SSW 10 Light Rain 24 101.6 8 94 7
7:00 S 10 gust 15 Mostly Cloudy 13 101.5 8 92 7
6:00 SSE 16 Light Rain 13 101.5 8 94 7
5:00 SSE 16 gust 22 Light Rain 8 101.5 8 93 7
4:00 SSE 13 gust 19 Light Rain 13 101.6 8 94 7
3:00 SSE 9 gust 16 Light Rain 13 101.7 8 92 6
2:00 S 9 Light Rain 24 101.8 8 92 7
1:00 SSE 12 Light Rain 24 101.8 8 93 7
0:00 S 10 gust 16 Mostly Cloudy 32 101.8 8 85 6
22 November 2014
23:00 SE 6 Mostly Cloudy 32 101.8 8 79 5
22:00 S 7 Partly Cloudy 32 101.8 7 84 4
21:00 WSW 6 Partly Cloudy 32 101.7 6 84 4
20:00 SW 5 Partly Cloudy 48 101.6 6 83 3
19:00 SW 8 Mostly Cloudy 48 101.6 7 75 3
18:00 WSW 8 Partly Cloudy 48 101.5 7 74 3
17:00 SW 9 Partly Cloudy 48 101.4 8 70 3
 
Map of Pacific - Georgia Basin marine weather areas Tsawwassen Ferry Terminal Sentry Shoal - 46131 Halibut Bank - 46146 La Perouse Bank - 46206 Discovery Island Esquimalt Harbour Kelp Reefs Malahat Race Rocks Lightstation Saturna Island Sheringham Point University of Victoria Victoria Gonzales Victoria Int'l Airport Ballenas Islands Campbell River Airport Comox Airport Entrance Island Fanny Island Nanaimo Airport Sisters Islets Estevan Point Tofino Airport Grief Point Powell River Airport Sechelt Point Atkinson Sand Heads Lightstation Vancouver Harbour Vancouver Int'l Airport West Vancouver Port Alberni Howe Sound - Pam Rocks Squamish Airport